createdAt,value
2019-05-14T00:00:22.763Z,15.93
2019-05-14T00:02:52.162Z,15.89
2019-05-14T00:05:21.657Z,15.86
2019-05-14T00:07:52.159Z,15.82
2019-05-14T00:10:21.895Z,15.80
2019-05-14T00:12:53.034Z,15.80
2019-05-14T00:15:22.128Z,15.81
2019-05-14T00:17:52.390Z,15.77
2019-05-14T00:20:22.570Z,15.76
2019-05-14T00:22:52.741Z,15.73
2019-05-14T00:25:22.082Z,15.72
2019-05-14T00:27:51.885Z,15.71
2019-05-14T00:30:22.052Z,15.73
2019-05-14T00:32:52.095Z,15.69
2019-05-14T00:35:21.667Z,15.67
2019-05-14T00:37:52.069Z,15.67
2019-05-14T00:40:22.073Z,15.64
2019-05-14T00:42:53.288Z,15.58
2019-05-14T00:45:22.414Z,15.57
2019-05-14T00:47:52.509Z,15.51
2019-05-14T00:50:22.040Z,15.49
2019-05-14T00:52:51.757Z,15.47
2019-05-14T00:55:22.445Z,15.44
2019-05-14T00:57:52.254Z,15.44
2019-05-14T01:00:22.144Z,15.38
2019-05-14T01:02:51.894Z,15.34
2019-05-14T01:05:21.519Z,15.31
2019-05-14T01:07:51.409Z,15.28
2019-05-14T01:10:22.236Z,15.27
2019-05-14T01:12:52.061Z,15.27
2019-05-14T01:15:21.975Z,15.28
2019-05-14T01:17:51.855Z,15.29
2019-05-14T01:20:21.370Z,15.30
2019-05-14T01:22:53.775Z,15.32
2019-05-14T01:25:23.789Z,15.34
2019-05-14T01:27:57.300Z,15.38
2019-05-14T01:30:27.282Z,15.36
2019-05-14T01:32:56.255Z,15.37
2019-05-14T01:35:25.504Z,15.38
2019-05-14T01:37:54.560Z,15.38
2019-05-14T01:40:23.627Z,15.41
2019-05-14T01:42:52.572Z,15.44
2019-05-14T01:45:27.707Z,15.47
2019-05-14T01:47:52.490Z,15.51
2019-05-14T01:50:21.698Z,15.55
2019-05-14T01:52:52.105Z,15.57
2019-05-14T01:55:22.054Z,15.61
2019-05-14T01:57:51.942Z,15.64
2019-05-14T02:00:22.377Z,15.69
2019-05-14T02:02:52.428Z,15.71
2019-05-14T02:05:21.800Z,15.74
2019-05-14T02:07:52.569Z,15.71
2019-05-14T02:10:22.298Z,15.68
2019-05-14T02:12:52.232Z,15.68
2019-05-14T02:15:35.227Z,15.65
2019-05-14T02:17:52.458Z,15.64
2019-05-14T02:20:21.739Z,15.65
2019-05-14T02:22:53.674Z,15.64
2019-05-14T02:25:23.106Z,15.66
2019-05-14T02:27:52.126Z,15.65
2019-05-14T02:30:28.565Z,15.62
2019-05-14T02:32:52.348Z,15.67
2019-05-14T02:35:22.083Z,15.66
2019-05-14T02:37:51.129Z,15.67
2019-05-14T02:40:20.605Z,15.68
2019-05-14T02:42:50.321Z,15.70
2019-05-14T02:45:19.992Z,15.72
2019-05-14T02:47:50.501Z,15.75
2019-05-14T02:50:20.278Z,15.80
2019-05-14T02:52:50.522Z,15.82
2019-05-14T02:55:19.683Z,15.85
2019-05-14T02:57:50.240Z,15.84
2019-05-14T03:00:19.818Z,15.83
2019-05-14T03:02:49.558Z,15.87
2019-05-14T03:05:19.797Z,15.88
2019-05-14T03:07:50.333Z,15.88
2019-05-14T03:10:23.493Z,15.87
2019-05-14T03:12:53.405Z,15.84
2019-05-14T03:15:23.620Z,15.81
2019-05-14T03:17:54.997Z,15.84
2019-05-14T03:20:24.144Z,15.89
2019-05-14T03:23:03.173Z,15.96
2019-05-14T03:25:24.301Z,16.06
2019-05-14T03:27:53.498Z,16.14
2019-05-14T03:30:23.653Z,16.20
2019-05-14T03:32:53.656Z,16.25
2019-05-14T03:35:32.471Z,16.33
2019-05-14T03:37:53.935Z,16.39
2019-05-14T03:40:22.999Z,16.41
2019-05-14T03:42:52.228Z,16.44
2019-05-14T03:45:22.079Z,16.48
2019-05-14T03:47:52.109Z,16.55
2019-05-14T03:50:21.091Z,16.66
2019-05-14T03:52:50.318Z,16.72
2019-05-14T03:55:20.143Z,16.81
2019-05-14T03:57:50.457Z,16.93
2019-05-14T04:00:23.399Z,17.01
2019-05-14T04:02:52.616Z,17.14
2019-05-14T04:05:22.888Z,17.30
2019-05-14T04:07:52.791Z,17.37
2019-05-14T04:10:21.804Z,17.41
2019-05-14T04:12:51.913Z,17.41
2019-05-14T04:15:22.582Z,17.43
2019-05-14T04:17:51.693Z,17.35
2019-05-14T04:20:21.141Z,17.31
2019-05-14T04:22:51.330Z,17.27
2019-05-14T04:25:20.358Z,17.26
2019-05-14T04:27:50.846Z,17.24
2019-05-14T04:30:23.924Z,17.29
2019-05-14T04:32:51.811Z,17.38
2019-05-14T04:35:21.099Z,17.46
2019-05-14T04:37:50.361Z,17.53
2019-05-14T04:40:19.281Z,17.61
2019-05-14T04:42:50.373Z,17.62
2019-05-14T04:45:19.862Z,17.57
2019-05-14T04:47:50.256Z,17.55
2019-05-14T04:50:20.336Z,17.59
2019-05-14T04:52:49.801Z,17.62
2019-05-14T04:55:20.385Z,17.71
2019-05-14T04:57:50.288Z,17.82
2019-05-14T05:00:20.025Z,17.93
2019-05-14T05:02:49.979Z,17.99
2019-05-14T05:05:19.804Z,17.99
2019-05-14T05:07:49.496Z,17.99
2019-05-14T05:10:19.414Z,17.99
2019-05-14T05:12:49.447Z,18.04
2019-05-14T05:15:21.968Z,18.07
2019-05-14T05:17:53.040Z,18.05
2019-05-14T05:20:22.014Z,18.06
2019-05-14T05:22:53.664Z,18.07
2019-05-14T05:25:22.826Z,18.08
2019-05-14T05:27:51.829Z,18.09
2019-05-14T05:30:21.110Z,18.05
2019-05-14T05:32:50.872Z,18.03
2019-05-14T05:35:20.133Z,17.99
2019-05-14T05:37:49.330Z,18.00
2019-05-14T05:40:19.682Z,18.00
2019-05-14T05:42:50.042Z,18.08
2019-05-14T05:45:19.651Z,18.07
2019-05-14T05:47:57.453Z,18.02
2019-05-14T05:50:19.691Z,18.06
2019-05-14T05:52:49.813Z,18.06
2019-05-14T05:55:19.409Z,18.03
2019-05-14T05:57:49.195Z,18.04
2019-05-14T06:00:44.655Z,18.09
2019-05-14T06:03:13.861Z,18.17
2019-05-14T06:05:43.106Z,18.26
2019-05-14T06:08:15.138Z,18.29
2019-05-14T06:10:44.230Z,18.34
2019-05-14T06:13:14.163Z,18.39
2019-05-14T06:15:47.807Z,18.39
2019-05-14T06:18:18.490Z,18.38
2019-05-14T06:20:44.824Z,18.38
2019-05-14T06:23:13.900Z,18.36
2019-05-14T06:25:42.786Z,18.28
2019-05-14T06:28:11.924Z,18.22
2019-05-14T06:30:41.619Z,18.13
2019-05-14T06:33:10.585Z,18.05
2019-05-14T06:35:40.045Z,17.96
2019-05-14T06:38:09.088Z,17.92
2019-05-14T06:40:39.548Z,17.81
2019-05-14T06:43:09.655Z,17.70
2019-05-14T06:45:39.138Z,17.64
2019-05-14T06:48:27.096Z,17.58
2019-05-14T06:50:46.485Z,17.53
2019-05-14T06:53:15.794Z,17.56
2019-05-14T06:55:45.068Z,17.58
2019-05-14T06:58:15.283Z,17.64
2019-05-14T07:00:44.517Z,17.74
2019-05-14T07:03:14.199Z,17.96
2019-05-14T07:05:44.009Z,18.24
2019-05-14T07:08:18.824Z,18.54
2019-05-14T07:10:49.161Z,18.95
2019-05-14T07:13:18.933Z,19.29
2019-05-14T07:15:49.216Z,19.69
2019-05-14T07:18:19.039Z,20.07
2019-05-14T07:20:48.871Z,20.39
2019-05-14T07:23:19.378Z,20.67
2019-05-14T07:25:49.664Z,20.80
2019-05-14T07:28:19.271Z,20.89
2019-05-14T07:30:48.722Z,20.97
2019-05-14T07:33:18.375Z,20.96
2019-05-14T07:35:48.874Z,21.00
2019-05-14T07:38:19.522Z,20.99
2019-05-14T07:40:49.574Z,20.89
2019-05-14T07:43:18.947Z,20.89
2019-05-14T07:45:49.222Z,20.94
2019-05-14T07:48:19.602Z,20.99
2019-05-14T07:50:51.940Z,21.04
2019-05-14T07:53:19.545Z,21.07
2019-05-14T07:55:49.344Z,21.10
2019-05-14T07:58:19.609Z,21.13
2019-05-14T08:00:50.083Z,21.20
2019-05-14T08:03:22.082Z,21.26
2019-05-14T08:05:51.090Z,21.28
2019-05-14T08:08:20.309Z,21.25
2019-05-14T08:10:49.684Z,21.36
2019-05-14T08:13:19.189Z,21.35
2019-05-14T08:15:49.118Z,21.42
2019-05-14T08:18:18.971Z,21.49
2019-05-14T08:20:49.512Z,21.48
2019-05-14T08:23:19.896Z,21.50
2019-05-14T08:25:48.995Z,21.50
2019-05-14T08:28:19.489Z,21.60
2019-05-14T08:30:49.245Z,21.56
2019-05-14T08:33:18.552Z,21.54
2019-05-14T08:35:48.838Z,21.50
2019-05-14T08:38:18.525Z,21.47
2019-05-14T08:40:48.842Z,21.44
2019-05-14T08:43:18.866Z,21.45
2019-05-14T08:45:49.858Z,21.50
2019-05-14T08:48:19.196Z,21.59
2019-05-14T08:50:48.481Z,21.72
2019-05-14T08:53:18.662Z,21.87
2019-05-14T08:55:48.790Z,21.92
2019-05-14T08:58:20.186Z,21.99
2019-05-14T09:00:49.202Z,22.12
2019-05-14T09:03:19.269Z,22.23
2019-05-14T09:05:49.159Z,22.38
2019-05-14T09:08:19.346Z,22.41
2019-05-14T09:10:49.938Z,22.51
2019-05-14T09:13:19.840Z,22.55
2019-05-14T09:15:49.146Z,22.71
2019-05-14T09:18:19.354Z,22.83
2019-05-14T09:20:50.474Z,22.92
2019-05-14T09:23:19.598Z,23.01
2019-05-14T09:25:53.214Z,23.10
2019-05-14T09:28:20.917Z,23.23
2019-05-14T09:30:50.097Z,23.39
2019-05-14T09:33:23.969Z,23.45
2019-05-14T09:36:08.084Z,23.49
2019-05-14T09:38:22.505Z,23.43
2019-05-14T09:41:06.922Z,23.50
2019-05-14T09:43:23.323Z,23.66
2019-05-14T09:45:52.759Z,23.76
2019-05-14T09:48:21.839Z,23.93
2019-05-14T09:50:51.508Z,24.06
2019-05-14T09:53:21.061Z,24.01
2019-05-14T09:55:50.141Z,24.09
2019-05-14T09:58:20.189Z,24.09
2019-05-14T10:00:50.658Z,24.20
2019-05-14T10:03:22.594Z,24.12
2019-05-14T10:05:51.786Z,24.17
2019-05-14T10:08:20.948Z,24.22
2019-05-14T10:10:50.593Z,24.25
2019-05-14T10:13:19.827Z,24.29
2019-05-14T10:15:48.724Z,24.36
2019-05-14T10:18:19.030Z,24.33
2019-05-14T10:20:49.391Z,24.29
2019-05-14T10:23:19.064Z,24.40
2019-05-14T10:25:48.344Z,24.42
2019-05-14T10:28:19.266Z,24.48
2019-05-14T10:30:49.343Z,24.53
2019-05-14T10:33:18.393Z,24.54
2019-05-14T10:35:48.465Z,24.58
2019-05-14T10:38:18.993Z,24.71
2019-05-14T10:40:48.477Z,24.89
2019-05-14T10:43:19.469Z,25.04
2019-05-14T10:45:49.394Z,25.00
2019-05-14T10:48:18.760Z,25.20
2019-05-14T10:50:59.051Z,25.20
2019-05-14T10:53:20.344Z,25.26
2019-05-14T10:55:49.998Z,25.28
2019-05-14T10:58:19.775Z,25.27
2019-05-14T11:00:49.578Z,25.37
2019-05-14T11:03:19.225Z,25.22
2019-05-14T11:05:48.647Z,25.23
2019-05-14T11:08:18.931Z,25.12
2019-05-14T11:10:49.878Z,25.24
2019-05-14T11:13:19.067Z,25.15
2019-05-14T11:15:48.812Z,25.11
2019-05-14T11:18:19.584Z,25.20
2019-05-14T11:20:51.596Z,25.33
2019-05-14T11:23:19.104Z,25.37
2019-05-14T11:25:48.768Z,25.64
2019-05-14T11:28:19.074Z,25.65
2019-05-14T11:30:49.397Z,25.75
2019-05-14T11:33:19.405Z,25.83
2019-05-14T11:35:48.788Z,25.85
2019-05-14T11:38:32.187Z,25.86
2019-05-14T11:40:49.492Z,25.92
2019-05-14T11:43:20.031Z,25.94
2019-05-14T11:45:49.166Z,26.03
2019-05-14T11:48:19.325Z,26.30
2019-05-14T11:50:49.305Z,26.97
2019-05-14T11:53:20.303Z,28.06
2019-05-14T11:55:50.575Z,28.52
2019-05-14T11:58:21.097Z,29.51
2019-05-14T12:00:50.158Z,29.93
2019-05-14T12:03:19.977Z,30.27
2019-05-14T12:05:50.118Z,30.93
2019-05-14T12:08:19.144Z,31.28
2019-05-14T12:10:47.923Z,31.56
2019-05-14T12:13:19.258Z,31.31
2019-05-14T12:15:48.605Z,30.73
2019-05-14T12:18:18.626Z,29.99
2019-05-14T12:20:49.835Z,29.31
2019-05-14T12:23:19.244Z,29.66
2019-05-14T12:25:49.312Z,30.64
2019-05-14T12:28:19.079Z,30.75
2019-05-14T12:30:49.084Z,31.26
2019-05-14T12:33:19.641Z,31.67
2019-05-14T12:35:49.682Z,31.47
2019-05-14T12:38:18.989Z,31.38
2019-05-14T12:40:47.802Z,31.29
2019-05-14T12:43:18.809Z,31.23
2019-05-14T12:45:48.112Z,31.73
2019-05-14T12:48:18.766Z,32.47
2019-05-14T12:50:49.023Z,33.45
2019-05-14T12:53:19.951Z,34.66
2019-05-14T12:55:48.877Z,35.79
2019-05-14T12:58:20.171Z,36.81
2019-05-14T13:00:48.822Z,36.75
2019-05-14T13:03:19.052Z,35.61
2019-05-14T13:05:49.079Z,34.45
2019-05-14T13:08:18.528Z,33.03
2019-05-14T13:10:49.202Z,31.88
2019-05-14T13:13:19.756Z,31.30
2019-05-14T13:15:48.947Z,31.11
2019-05-14T13:18:19.291Z,30.31
2019-05-14T13:20:48.317Z,29.61
2019-05-14T13:23:18.396Z,29.58
2019-05-14T13:25:48.325Z,30.24
2019-05-14T13:28:19.413Z,31.32
2019-05-14T13:30:48.945Z,32.65
2019-05-14T13:33:19.402Z,33.72
2019-05-14T13:35:48.869Z,34.42
2019-05-14T13:38:17.679Z,35.09
2019-05-14T13:40:49.151Z,34.85
2019-05-14T13:43:19.096Z,34.58
2019-05-14T13:45:49.380Z,34.31
2019-05-14T13:48:19.019Z,34.25
2019-05-14T13:50:49.026Z,34.14
2019-05-14T13:53:19.053Z,33.66
2019-05-14T13:55:56.793Z,33.60
2019-05-14T13:58:20.792Z,33.94
2019-05-14T14:00:51.927Z,33.99
2019-05-14T14:03:20.334Z,34.29
2019-05-14T14:05:50.081Z,34.26
2019-05-14T14:08:19.479Z,33.93
2019-05-14T14:10:53.323Z,34.03
2019-05-14T14:13:19.840Z,32.77
2019-05-14T14:15:49.239Z,32.36
2019-05-14T14:18:20.949Z,32.20
2019-05-14T14:20:49.074Z,31.89
2019-05-14T14:23:26.209Z,31.87
2019-05-14T14:25:54.869Z,31.37
2019-05-14T14:28:20.233Z,30.14
2019-05-14T14:30:49.378Z,29.01
2019-05-14T14:33:18.976Z,28.28
2019-05-14T14:35:48.709Z,27.62
2019-05-14T14:38:20.156Z,27.12
2019-05-14T14:40:49.473Z,26.47
2019-05-14T14:43:19.073Z,25.88
2019-05-14T14:45:51.186Z,25.46
2019-05-14T14:48:20.436Z,25.24
2019-05-14T14:50:50.059Z,24.93
2019-05-14T14:53:25.932Z,24.67
2019-05-14T14:55:50.684Z,24.51
2019-05-14T14:58:20.365Z,24.40
2019-05-14T15:00:49.709Z,24.19
2019-05-14T15:03:21.204Z,24.11
2019-05-14T15:05:50.066Z,23.81
2019-05-14T15:08:20.336Z,23.80
2019-05-14T15:10:49.829Z,23.61
2019-05-14T15:13:19.722Z,23.55
2019-05-14T15:15:49.531Z,23.50
2019-05-14T15:18:18.879Z,23.48
2019-05-14T15:20:48.894Z,23.38
2019-05-14T15:23:19.452Z,23.21
2019-05-14T15:25:49.520Z,23.19
2019-05-14T15:28:18.914Z,22.96
2019-05-14T15:30:49.835Z,22.96
2019-05-14T15:33:19.294Z,22.93
2019-05-14T15:35:49.269Z,22.99
2019-05-14T15:38:18.741Z,22.82
2019-05-14T15:41:13.610Z,22.72
2019-05-14T15:43:41.479Z,22.65
2019-05-14T15:46:10.702Z,22.53
2019-05-14T15:48:39.776Z,22.36
2019-05-14T15:51:11.392Z,22.17
2019-05-14T15:53:40.209Z,22.00
2019-05-14T15:56:09.390Z,21.86
2019-05-14T15:58:39.119Z,21.60
2019-05-14T16:01:11.537Z,21.46
2019-05-14T16:03:41.675Z,21.33
2019-05-14T16:06:11.280Z,21.21
2019-05-14T16:08:40.547Z,21.17
2019-05-14T16:11:11.479Z,21.07
2019-05-14T16:13:40.560Z,21.01
2019-05-14T16:16:10.715Z,20.93
2019-05-14T16:18:41.552Z,20.80
2019-05-14T16:21:13.908Z,20.70
2019-05-14T16:23:42.948Z,20.69
2019-05-14T16:26:13.136Z,20.62
2019-05-14T16:28:42.283Z,20.63
2019-05-14T16:31:11.397Z,20.61
2019-05-14T16:33:40.948Z,20.59
2019-05-14T16:36:09.885Z,20.54
2019-05-14T16:38:39.654Z,20.46
2019-05-14T16:41:09.004Z,20.37
2019-05-14T16:43:39.921Z,20.26
2019-05-14T16:46:09.778Z,20.21
2019-05-14T16:48:39.808Z,20.24
2019-05-14T16:51:09.275Z,20.25
2019-05-14T16:53:39.529Z,20.26
2019-05-14T16:56:08.864Z,20.27
2019-05-14T16:58:38.625Z,20.22
2019-05-14T17:01:09.619Z,20.21
2019-05-14T17:03:40.010Z,20.13
2019-05-14T17:06:11.890Z,20.11
2019-05-14T17:08:41.296Z,20.07
2019-05-14T17:11:11.197Z,20.06
2019-05-14T17:13:41.209Z,20.04
2019-05-14T17:16:10.543Z,20.04
2019-05-14T17:18:42.132Z,20.01
2019-05-14T17:21:11.190Z,20.02
2019-05-14T17:23:40.977Z,19.96
2019-05-14T17:26:10.362Z,19.95
2019-05-14T17:28:40.845Z,19.94
2019-05-14T17:31:11.041Z,19.86
2019-05-14T17:33:40.202Z,19.81
2019-05-14T17:36:09.935Z,19.70
2019-05-14T17:38:39.498Z,19.64
2019-05-14T17:41:09.624Z,19.62
2019-05-14T17:43:39.587Z,19.57
2019-05-14T17:46:09.846Z,19.54
2019-05-14T17:48:42.240Z,19.55
2019-05-14T17:51:11.217Z,19.53
2019-05-14T17:53:42.319Z,19.54
2019-05-14T17:56:11.117Z,19.54
2019-05-14T17:58:41.437Z,19.51
2019-05-14T18:01:10.429Z,19.49
2019-05-14T18:03:40.165Z,19.45
2019-05-14T18:06:09.954Z,19.43
2019-05-14T18:08:39.084Z,19.39
2019-05-14T18:11:09.184Z,19.35
2019-05-14T18:13:39.096Z,19.36
2019-05-14T18:16:09.143Z,19.30
2019-05-14T18:18:38.239Z,19.23
2019-05-14T18:21:09.374Z,19.16
2019-05-14T18:23:41.976Z,19.12
2019-05-14T18:26:09.951Z,19.07
2019-05-14T18:28:39.531Z,19.05
2019-05-14T18:31:10.064Z,19.04
2019-05-14T18:33:40.394Z,19.04
2019-05-14T18:36:09.419Z,19.02
2019-05-14T18:38:38.954Z,19.03
2019-05-14T18:41:08.707Z,19.01
2019-05-14T18:43:37.960Z,18.97
2019-05-14T18:46:08.629Z,18.94
2019-05-14T18:48:37.892Z,18.95
2019-05-14T18:51:08.962Z,18.94
2019-05-14T18:53:38.577Z,18.96
2019-05-14T18:56:19.669Z,18.95
2019-05-14T18:58:39.037Z,18.92
2019-05-14T19:01:08.393Z,18.90
2019-05-14T19:03:39.677Z,18.90
2019-05-14T19:06:08.855Z,18.88
2019-05-14T19:08:39.432Z,18.82
2019-05-14T19:11:08.702Z,18.81
2019-05-14T19:13:39.010Z,18.71
2019-05-14T19:16:08.557Z,18.65
2019-05-14T19:18:38.575Z,18.63
2019-05-14T19:21:08.784Z,18.61
2019-05-14T19:23:38.557Z,18.65
2019-05-14T19:26:09.544Z,18.60
2019-05-14T19:28:39.766Z,18.55
2019-05-14T19:31:09.254Z,18.50
2019-05-14T19:33:38.632Z,18.45
2019-05-14T19:36:08.866Z,18.40
2019-05-14T19:38:38.895Z,18.42
2019-05-14T19:41:10.047Z,18.41
2019-05-14T19:43:38.940Z,18.42
2019-05-14T19:46:08.774Z,18.43
2019-05-14T19:48:37.997Z,18.41
2019-05-14T19:51:08.272Z,18.38
2019-05-14T19:53:39.239Z,18.37
2019-05-14T19:56:08.581Z,18.37
2019-05-14T19:58:38.507Z,18.34
2019-05-14T20:01:09.172Z,18.28
2019-05-14T20:03:39.342Z,18.19
2019-05-14T20:06:09.179Z,18.11
2019-05-14T20:08:38.734Z,18.04
2019-05-14T20:11:07.689Z,17.94
2019-05-14T20:13:39.050Z,17.84
2019-05-14T20:16:08.653Z,17.70
2019-05-14T20:18:40.423Z,17.54
2019-05-14T20:21:10.662Z,17.39
2019-05-14T20:23:39.737Z,17.27
2019-05-14T20:26:08.847Z,17.16
2019-05-14T20:28:39.107Z,17.04
2019-05-14T20:31:10.004Z,16.95
2019-05-14T20:33:38.853Z,16.85
2019-05-14T20:36:08.406Z,16.76
2019-05-14T20:38:39.065Z,16.70
2019-05-14T20:41:18.154Z,16.65
2019-05-14T20:43:47.999Z,16.56
2019-05-14T20:46:19.152Z,16.51
2019-05-14T20:48:47.995Z,16.44
2019-05-14T20:51:18.547Z,16.41
2019-05-14T20:53:48.713Z,16.41
2019-05-14T20:56:19.001Z,16.39
2019-05-14T20:58:48.329Z,16.40
2019-05-14T21:01:18.426Z,16.35
2019-05-14T21:03:48.510Z,16.31
2019-05-14T21:06:18.827Z,16.26
2019-05-14T21:08:49.026Z,16.22
2019-05-14T21:11:19.045Z,16.18
2019-05-14T21:13:50.394Z,16.14
2019-05-14T21:16:20.133Z,16.10
2019-05-14T21:18:49.195Z,16.07
2019-05-14T21:21:18.657Z,16.06
2019-05-14T21:23:48.996Z,16.06
2019-05-14T21:26:19.442Z,16.06
2019-05-14T21:28:48.861Z,16.03
2019-05-14T21:31:19.034Z,16.02
2019-05-14T21:33:48.955Z,15.97
2019-05-14T21:36:19.297Z,15.93
2019-05-14T21:38:49.121Z,15.89
2019-05-14T21:41:20.377Z,15.87
2019-05-14T21:43:49.375Z,15.84
2019-05-14T21:46:19.414Z,15.82
2019-05-14T21:48:48.790Z,15.79
2019-05-14T21:51:18.137Z,15.77
2019-05-14T21:53:48.332Z,15.76
2019-05-14T21:56:21.251Z,15.74
2019-05-14T21:58:48.254Z,15.70
2019-05-14T22:01:18.737Z,15.66
2019-05-14T22:03:49.133Z,15.66
2019-05-14T22:06:48.837Z,15.61
2019-05-14T22:09:28.480Z,15.60
2019-05-14T22:11:58.349Z,15.58
2019-05-14T22:14:28.324Z,15.55
2019-05-14T22:16:58.394Z,15.52
2019-05-14T22:19:28.637Z,15.49
2019-05-14T22:21:58.678Z,15.46
2019-05-14T22:24:28.725Z,15.41
2019-05-14T22:26:58.669Z,15.37
2019-05-14T22:29:28.605Z,15.35
2019-05-14T22:31:58.698Z,15.35
2019-05-14T22:34:29.450Z,15.33
2019-05-14T22:36:58.460Z,15.30
2019-05-14T22:39:29.154Z,15.26
2019-05-14T22:42:00.217Z,15.27
2019-05-14T22:44:30.602Z,15.26
2019-05-14T22:47:00.929Z,15.22
2019-05-14T22:49:29.891Z,15.22
2019-05-14T22:51:59.159Z,15.20
2019-05-14T22:54:31.440Z,15.16
2019-05-14T22:57:00.260Z,15.15
2019-05-14T22:59:30.958Z,15.14
2019-05-14T23:02:00.107Z,15.10
2019-05-14T23:04:30.249Z,15.11
2019-05-14T23:06:59.295Z,15.11
2019-05-14T23:09:28.666Z,15.14
2019-05-14T23:11:58.917Z,15.16
2019-05-14T23:14:28.292Z,15.13
2019-05-14T23:16:58.809Z,15.08
2019-05-14T23:19:29.318Z,15.04
2019-05-14T23:21:58.225Z,15.01
2019-05-14T23:24:28.635Z,14.97
2019-05-14T23:26:58.453Z,14.93
2019-05-14T23:29:28.781Z,14.91
2019-05-14T23:31:58.790Z,14.90
2019-05-14T23:34:28.546Z,14.90
2019-05-14T23:36:58.549Z,14.93
2019-05-14T23:39:28.682Z,14.94
2019-05-14T23:41:59.815Z,14.92
2019-05-14T23:44:29.019Z,14.91
2019-05-14T23:46:58.877Z,14.91
2019-05-14T23:49:27.810Z,14.91
2019-05-14T23:51:56.773Z,14.89
2019-05-14T23:54:25.716Z,14.89
2019-05-14T23:56:54.425Z,14.92
2019-05-14T23:59:23.306Z,14.90
